Time;durP1;ratioP1;P1;durP2;ratioP2;P2;SDS_P1;SDS_P2;PMS_P1;PMS_P2;Temp;Humidity;BMP_temperature;BMP_pressure;BME280_temperature;BME280_humidity;BME280_pressure;Samples;Min_cycle;Max_cycle;Signal;HPM_P1;HPM_P2
2022/10/21 04:07:25;;;;;;;11.10;7.50;;;13.60;99.90;;;;;;5013882;28;20530;-64
2022/10/21 04:09:50;;;;;;;8.23;7.23;;;13.70;99.90;;;;;;5015095;28;20404;-64
2022/10/21 04:12:16;;;;;;;8.07;6.60;;;13.70;99.90;;;;;;5015142;28;20174;-64
2022/10/21 04:14:41;;;;;;;10.07;7.20;;;13.70;99.90;;;;;;5026808;28;20198;-66
2022/10/21 04:17:07;;;;;;;13.50;7.73;;;13.70;99.90;;;;;;5034538;28;20276;-64
2022/10/21 04:19:32;;;;;;;8.87;7.07;;;13.70;99.90;;;;;;5034900;28;20256;-64
2022/10/21 04:21:58;;;;;;;9.93;5.97;;;13.70;99.90;;;;;;5034812;28;20746;-64
2022/10/21 04:24:23;;;;;;;10.20;7.10;;;13.70;99.90;;;;;;5034226;28;20194;-63
2022/10/21 04:26:49;;;;;;;12.50;8.10;;;13.80;99.90;;;;;;5034067;28;20198;-64
2022/10/21 04:29:17;;;;;;;8.87;6.13;;;13.80;99.90;;;;;;5034416;28;20177;-64
2022/10/21 04:31:43;;;;;;;12.20;7.60;;;13.80;99.90;;;;;;5034565;28;20187;-63
2022/10/21 04:34:09;;;;;;;9.20;6.30;;;13.80;99.90;;;;;;5032782;28;20435;-64
2022/10/21 04:36:35;;;;;;;9.87;7.07;;;13.80;99.90;;;;;;5034110;28;20197;-63
2022/10/21 04:39:00;;;;;;;9.80;6.70;;;13.80;99.90;;;;;;5034235;28;20436;-64
2022/10/21 04:41:26;;;;;;;14.77;6.30;;;13.90;99.90;;;;;;5034493;28;20166;-63
2022/10/21 04:43:51;;;;;;;8.37;6.30;;;13.90;99.90;;;;;;5015860;28;20197;-63
2022/10/21 04:46:19;;;;;;;11.90;7.30;;;13.90;99.90;;;;;;5034170;28;20178;-63
2022/10/21 04:48:45;;;;;;;10.33;6.20;;;13.90;99.90;;;;;;5034229;28;20537;-62
2022/10/21 04:51:11;;;;;;;7.83;6.50;;;13.90;99.90;;;;;;5034071;28;20447;-63
2022/10/21 04:53:36;;;;;;;9.37;5.67;;;14.00;99.90;;;;;;5033356;28;20236;-63
2022/10/21 04:56:02;;;;;;;11.23;6.80;;;14.00;99.90;;;;;;5034203;28;20412;-64
2022/10/21 04:58:27;;;;;;;7.77;6.97;;;14.00;99.90;;;;;;5033947;28;20209;-63
2022/10/21 05:00:53;;;;;;;13.50;7.70;;;14.00;99.90;;;;;;5034101;28;20631;-63
2022/10/21 05:03:19;;;;;;;12.77;7.57;;;14.00;99.90;;;;;;5033301;28;20181;-65
2022/10/21 05:05:49;;;;;;;11.10;7.37;;;14.00;99.90;;;;;;5033541;28;20555;-63
2022/10/21 05:08:17;;;;;;;9.63;5.97;;;14.00;99.90;;;;;;5033514;28;20452;-63
2022/10/21 05:10:42;;;;;;;10.50;6.90;;;14.00;99.90;;;;;;5033752;28;20486;-64
2022/10/21 05:13:08;;;;;;;11.07;7.30;;;14.00;99.90;;;;;;5033427;28;20439;-64
2022/10/21 05:15:34;;;;;;;8.63;6.83;;;14.10;99.90;;;;;;5033788;28;20186;-63
2022/10/21 05:17:59;;;;;;;11.80;8.33;;;14.10;99.90;;;;;;5033748;28;20583;-63
2022/10/21 05:20:25;;;;;;;12.83;8.10;;;14.10;99.90;;;;;;5033484;28;20181;-65
2022/10/21 05:22:52;;;;;;;6.27;5.60;;;14.10;99.90;;;;;;5033213;28;20170;-64
2022/10/21 05:25:19;;;;;;;15.63;7.83;;;14.00;99.90;;;;;;5033504;28;20186;-65
2022/10/21 05:27:45;;;;;;;7.97;5.50;;;14.00;99.90;;;;;;5015778;28;20522;-66
2022/10/21 05:30:12;;;;;;;8.10;5.13;;;14.10;99.90;;;;;;5033551;28;20401;-64
2022/10/21 05:32:38;;;;;;;9.47;5.43;;;14.10;99.90;;;;;;5033090;28;20462;-65
2022/10/21 05:35:04;;;;;;;7.77;5.27;;;14.10;99.90;;;;;;5033182;28;20847;-64
2022/10/21 05:37:30;;;;;;;9.77;5.40;;;14.30;99.90;;;;;;5032753;28;20397;-68
2022/10/21 05:39:56;;;;;;;9.57;4.13;;;14.30;99.90;;;;;;5033300;28;20890;-65
2022/10/21 05:42:21;;;;;;;7.80;4.07;;;14.40;99.90;;;;;;5032591;28;20181;-70
2022/10/21 05:44:47;;;;;;;6.43;4.00;;;14.60;99.90;;;;;;5032946;28;20201;-66
2022/10/21 05:47:13;;;;;;;8.17;2.93;;;14.80;99.90;;;;;;5032031;28;20455;-64
2022/10/21 05:49:39;;;;;;;5.90;3.40;;;15.00;99.90;;;;;;5014964;28;20222;-65
2022/10/21 05:52:05;;;;;;;4.23;3.23;;;15.10;99.90;;;;;;5033170;28;20401;-64
2022/10/21 05:54:31;;;;;;;7.33;4.20;;;15.20;99.90;;;;;;5014689;28;20455;-66
2022/10/21 05:56:57;;;;;;;5.60;4.13;;;15.20;99.90;;;;;;5014838;28;20193;-65
2022/10/21 05:59:24;;;;;;;5.87;3.37;;;15.20;99.90;;;;;;5032305;28;20182;-64
2022/10/21 06:01:50;;;;;;;3.73;3.00;;;15.30;99.90;;;;;;5032637;28;20910;-64
2022/10/21 06:04:16;;;;;;;10.30;3.73;;;15.30;99.90;;;;;;5032599;28;20435;-63
2022/10/21 06:06:41;;;;;;;4.33;3.43;;;15.30;99.90;;;;;;5032952;28;20416;-63
2022/10/21 06:09:07;;;;;;;7.87;2.87;;;15.40;99.90;;;;;;5033074;28;20743;-63
2022/10/21 06:11:32;;;;;;;3.13;2.43;;;15.40;99.90;;;;;;5032944;28;20662;-64
2022/10/21 06:13:58;;;;;;;8.37;4.50;;;15.40;99.90;;;;;;5032520;28;20256;-64
2022/10/21 06:16:24;;;;;;;4.47;3.17;;;15.40;99.90;;;;;;5032921;28;20182;-63
2022/10/21 06:18:49;;;;;;;4.60;3.17;;;15.40;99.90;;;;;;5015218;28;20421;-63
2022/10/21 06:21:15;;;;;;;3.67;2.67;;;15.30;99.90;;;;;;5033201;28;20208;-64
2022/10/21 06:23:41;;;;;;;5.27;3.00;;;15.30;99.90;;;;;;5032629;28;20243;-63
2022/10/21 06:26:12;;;;;;;9.30;4.20;;;15.30;99.90;;;;;;5032716;28;20639;-66
2022/10/21 06:28:40;;;;;;;4.97;3.13;;;15.30;99.90;;;;;;5014873;28;20209;-65
2022/10/21 06:31:07;;;;;;;11.77;3.90;;;15.30;99.90;;;;;;5032823;28;20405;-64
2022/10/21 06:33:33;;;;;;;7.10;4.60;;;15.30;99.90;;;;;;5032165;28;20472;-65
2022/10/21 06:35:59;;;;;;;7.40;4.43;;;15.20;99.90;;;;;;5032989;28;20437;-64
2022/10/21 06:38:25;;;;;;;10.93;4.57;;;15.10;99.90;;;;;;5032925;28;20393;-64
2022/10/21 06:40:51;;;;;;;9.20;5.73;;;15.10;99.90;;;;;;5032888;28;20886;-65
2022/10/21 06:43:17;;;;;;;5.53;4.97;;;15.00;99.90;;;;;;5031997;28;20259;-66
2022/10/21 06:45:43;;;;;;;5.90;4.40;;;15.00;99.90;;;;;;5032742;28;20498;-64
2022/10/21 06:48:10;;;;;;;8.23;5.20;;;14.90;99.90;;;;;;5032600;28;20886;-64
2022/10/21 06:50:38;;;;;;;7.97;4.80;;;14.90;99.90;;;;;;4992547;28;20434;-63
2022/10/21 06:53:04;;;;;;;10.50;3.97;;;14.90;99.90;;;;;;4978691;28;20565;-64
2022/10/21 06:55:29;;;;;;;6.60;4.87;;;14.80;99.90;;;;;;4994308;28;20946;-65
2022/10/21 06:57:55;;;;;;;12.50;5.27;;;14.90;99.90;;;;;;4995026;28;20303;-64
2022/10/21 07:00:20;;;;;;;7.17;5.37;;;14.80;99.90;;;;;;4994534;28;20665;-64
2022/10/21 07:02:46;;;;;;;4.80;4.00;;;14.90;99.90;;;;;;4994573;28;20188;-64
2022/10/21 07:05:12;;;;;;;10.67;5.07;;;14.80;99.90;;;;;;4994425;28;20210;-65
2022/10/21 07:07:37;;;;;;;8.00;5.37;;;14.80;99.90;;;;;;4977899;28;20207;-65
2022/10/21 07:10:03;;;;;;;10.00;6.77;;;14.80;99.90;;;;;;4993694;28;20661;-66
2022/10/21 07:12:30;;;;;;;6.00;4.20;;;14.90;99.90;;;;;;4977663;28;20198;-66
2022/10/21 07:14:55;;;;;;;7.07;5.00;;;14.80;99.90;;;;;;4993760;28;20442;-65
2022/10/21 07:17:21;;;;;;;6.30;4.67;;;14.80;99.90;;;;;;4993883;28;20864;-66
2022/10/21 07:19:46;;;;;;;5.73;4.90;;;14.90;99.90;;;;;;4994531;28;20256;-65
2022/10/21 07:22:13;;;;;;;6.90;4.63;;;14.90;99.90;;;;;;5008608;28;20189;-65
2022/10/21 07:24:39;;;;;;;7.97;4.57;;;15.00;99.90;;;;;;5035369;28;20547;-66
2022/10/21 07:27:05;;;;;;;7.60;4.00;;;15.00;99.90;;;;;;5035490;28;20437;-70
2022/10/21 07:29:30;;;;;;;6.20;4.73;;;15.10;99.90;;;;;;5017843;28;20930;-65
2022/10/21 07:31:56;;;;;;;6.63;4.77;;;15.10;99.90;;;;;;5035330;28;20169;-66
2022/10/21 07:34:23;;;;;;;6.20;3.90;;;15.00;99.90;;;;;;5034719;28;20201;-65
2022/10/21 07:36:51;;;;;;;9.43;4.37;;;15.00;99.90;;;;;;5035559;28;20401;-66
2022/10/21 07:39:19;;;;;;;9.03;4.27;;;15.00;99.90;;;;;;5034669;28;20416;-67
2022/10/21 07:41:48;;;;;;;5.80;4.20;;;15.00;99.90;;;;;;5034827;28;20424;-67
2022/10/21 07:44:15;;;;;;;5.80;3.10;;;15.00;99.90;;;;;;5034321;28;20438;-67
2022/10/21 07:46:42;;;;;;;5.60;3.13;;;15.10;99.90;;;;;;5034837;28;20801;-66
2022/10/21 07:49:08;;;;;;;5.77;4.20;;;15.10;99.90;;;;;;5035336;28;20401;-66
2022/10/21 07:51:34;;;;;;;15.03;6.57;;;15.10;99.90;;;;;;5017690;28;20979;-66
2022/10/21 07:54:00;;;;;;;4.43;3.57;;;15.10;99.90;;;;;;5035003;28;20425;-66
2022/10/21 07:56:31;;;;;;;8.37;4.83;;;15.10;99.90;;;;;;5035145;28;20170;-66
2022/10/21 07:58:57;;;;;;;7.23;3.47;;;15.20;99.90;;;;;;5034941;28;20432;-66
2022/10/21 08:01:23;;;;;;;6.67;3.53;;;15.20;99.90;;;;;;5035051;28;20397;-66
2022/10/21 08:03:51;;;;;;;5.93;4.90;;;15.20;99.90;;;;;;5034563;28;20424;-66
2022/10/21 08:06:17;;;;;;;4.80;4.13;;;15.20;99.90;;;;;;5034855;28;20403;-66
2022/10/21 08:08:44;;;;;;;6.93;3.70;;;15.30;99.90;;;;;;5017033;28;20832;-66
2022/10/21 08:11:09;;;;;;;7.57;4.10;;;15.30;99.90;;;;;;5034830;28;20457;-66
2022/10/21 08:13:36;;;;;;;6.20;4.10;;;15.30;99.90;;;;;;5016943;28;20996;-67
2022/10/21 08:16:04;;;;;;;12.10;4.70;;;15.30;99.90;;;;;;5034531;28;20174;-67
2022/10/21 08:18:29;;;;;;;4.50;3.63;;;15.30;99.90;;;;;;5034872;28;20418;-67
2022/10/21 08:20:55;;;;;;;4.73;4.10;;;15.30;99.90;;;;;;5017193;28;20409;-67
2022/10/21 08:23:22;;;;;;;7.93;4.93;;;15.30;99.90;;;;;;5034242;28;20635;-66
2022/10/21 08:25:54;;;;;;;7.57;4.30;;;15.30;99.90;;;;;;5034652;28;20245;-69
2022/10/21 08:28:22;;;;;;;9.70;4.83;;;15.30;99.90;;;;;;5034569;28;20592;-67
2022/10/21 08:30:47;;;;;;;4.83;4.30;;;15.30;99.90;;;;;;5034191;28;20953;-67
2022/10/21 08:33:14;;;;;;;7.57;4.40;;;15.30;99.90;;;;;;5016320;28;20383;-67
2022/10/21 08:35:40;;;;;;;4.80;4.30;;;15.20;99.90;;;;;;5034646;28;20173;-66
2022/10/21 08:38:06;;;;;;;5.53;4.90;;;15.20;99.90;;;;;;5034740;28;20471;-66
2022/10/21 08:40:43;;;;;;;5.60;3.90;;;15.20;99.90;;;;;;5034450;28;20413;-71
2022/10/21 08:43:31;;;;;;;5.83;4.50;;;15.20;99.90;;;;;;5033991;28;20393;-66
2022/10/21 08:46:03;;;;;;;4.93;3.67;;;15.20;99.90;;;;;;5034494;28;20435;-66
2022/10/21 08:48:59;;;;;;;6.20;5.60;;;15.20;99.90;;;;;;5034461;28;20853;-66
2022/10/21 08:51:27;;;;;;;7.27;4.43;;;15.20;99.90;;;;;;5034335;28;20730;-66
2022/10/21 08:53:57;;;;;;;6.60;3.67;;;15.20;99.90;;;;;;5033880;28;20443;-66
2022/10/21 08:56:24;;;;;;;6.43;3.43;;;15.20;99.90;;;;;;5033953;28;20456;-66
2022/10/21 08:58:51;;;;;;;3.43;3.13;;;15.10;99.90;;;;;;5033903;28;20934;-67
2022/10/21 09:01:24;;;;;;;8.77;4.07;;;15.20;99.90;;;;;;5033952;28;20800;-66
2022/10/21 09:04:16;;;;;;;6.97;3.80;;;15.20;99.90;;;;;;5033562;28;20416;-65
2022/10/21 09:07:10;;;;;;;9.03;5.17;;;15.20;99.90;;;;;;5033769;28;20421;-65
2022/10/21 09:09:45;;;;;;;7.33;4.93;;;15.20;99.90;;;;;;5024294;28;20439;-65
2022/10/21 09:12:26;;;;;;;6.97;5.13;;;15.30;99.90;;;;;;5033308;28;20429;-65
2022/10/21 09:15:00;;;;;;;5.80;4.93;;;15.40;99.90;;;;;;5033679;28;20818;-64
2022/10/21 09:17:32;;;;;;;9.13;5.17;;;15.40;99.90;;;;;;5015773;28;20383;-64
2022/10/21 09:20:02;;;;;;;7.53;3.60;;;15.40;99.90;;;;;;5033914;28;20463;-67
2022/10/21 09:22:37;;;;;;;5.67;4.30;;;15.50;99.90;;;;;;5033248;28;20404;-66
2022/10/21 09:25:22;;;;;;;10.47;5.13;;;15.50;99.90;;;;;;5033302;28;20445;-65
2022/10/21 09:27:49;;;;;;;6.10;4.17;;;15.60;99.90;;;;;;5033660;28;20776;-63
2022/10/21 09:30:21;;;;;;;13.53;6.80;;;15.70;99.90;;;;;;5031167;28;20383;-64
2022/10/21 09:32:49;;;;;;;5.87;5.10;;;15.70;99.90;;;;;;5022352;28;21060;-65
2022/10/21 09:35:41;;;;;;;16.73;11.07;;;15.80;99.90;;;;;;4996130;28;20422;-65
2022/10/21 09:38:15;;;;;;;10.17;5.80;;;15.80;99.90;;;;;;5017220;28;22229;-64
2022/10/21 09:40:41;;;;;;;8.20;5.87;;;15.80;99.90;;;;;;5033434;28;20419;-64
2022/10/21 09:43:16;;;;;;;6.67;4.67;;;15.80;99.90;;;;;;5033261;28;20420;-65
2022/10/21 09:45:44;;;;;;;7.73;3.90;;;15.90;99.90;;;;;;5033501;28;20401;-64
2022/10/21 09:48:16;;;;;;;5.17;4.27;;;15.90;99.90;;;;;;5033535;28;20552;-64
2022/10/21 09:50:42;;;;;;;6.23;4.90;;;16.00;99.90;;;;;;5033416;28;20451;-64
2022/10/21 09:53:17;;;;;;;4.33;3.50;;;16.10;99.90;;;;;;5032511;28;20437;-66
2022/10/21 09:55:48;;;;;;;4.27;3.83;;;16.10;99.90;;;;;;5033689;28;20382;-65
2022/10/21 09:58:43;;;;;;;3.30;3.00;;;16.20;99.90;;;;;;5033203;28;20400;-64
2022/10/21 10:01:18;;;;;;;3.83;3.40;;;16.20;99.90;;;;;;5015264;28;20993;-64
2022/10/21 10:03:51;;;;;;;7.30;2.83;;;16.20;99.90;;;;;;5032743;28;20425;-65
2022/10/21 10:06:37;;;;;;;7.30;2.97;;;16.20;99.90;;;;;;5033036;28;20479;-63
2022/10/21 10:09:28;;;;;;;3.93;3.63;;;16.30;99.90;;;;;;5033222;28;20446;-63
2022/10/21 10:12:03;;;;;;;4.53;2.90;;;16.20;99.90;;;;;;5033308;28;20756;-64
2022/10/21 10:14:40;;;;;;;2.70;2.40;;;16.30;99.90;;;;;;5032520;28;20826;-63
2022/10/21 10:17:27;;;;;;;4.43;2.50;;;16.30;99.90;;;;;;5032408;28;20425;-64
2022/10/21 10:20:14;;;;;;;4.00;3.20;;;16.40;99.90;;;;;;5015216;28;20424;-63
2022/10/21 10:22:58;;;;;;;4.17;2.97;;;16.40;99.90;;;;;;5032685;28;20454;-63
2022/10/21 10:25:29;;;;;;;5.13;3.20;;;16.40;99.90;;;;;;5035888;28;20433;-63
2022/10/21 10:27:58;;;;;;;3.13;2.93;;;16.50;99.90;;;;;;5019004;28;20489;-63
2022/10/21 10:30:27;;;;;;;11.63;4.73;;;16.50;99.90;;;;;;5036502;28;20427;-63
2022/10/21 10:32:55;;;;;;;4.20;3.00;;;16.70;99.90;;;;;;5036553;28;20806;-63
2022/10/21 10:35:34;;;;;;;3.90;2.93;;;16.80;99.90;;;;;;5036597;28;20431;-64
2022/10/21 10:38:03;;;;;;;4.10;3.00;;;16.80;99.90;;;;;;5036727;28;20404;-62
2022/10/21 10:40:37;;;;;;;7.43;3.30;;;16.80;99.90;;;;;;5036784;28;20407;-62
2022/10/21 10:43:21;;;;;;;3.70;2.33;;;16.90;99.90;;;;;;5036483;28;20418;-62
2022/10/21 10:46:00;;;;;;;2.63;1.93;;;16.90;99.90;;;;;;5036332;28;20429;-62
2022/10/21 10:48:47;;;;;;;3.43;2.47;;;17.00;99.90;;;;;;5036707;28;20444;-63
2022/10/21 10:51:24;;;;;;;4.00;2.30;;;17.00;99.90;;;;;;5018902;28;20506;-66
2022/10/21 10:54:23;;;;;;;2.50;1.73;;;17.10;99.90;;;;;;5017930;28;20431;-66
2022/10/21 10:57:18;;;;;;;3.47;2.10;;;17.10;99.90;;;;;;5036376;28;20393;-63
2022/10/21 10:59:46;;;;;;;3.53;2.47;;;17.10;99.90;;;;;;5036038;28;20446;-63
2022/10/21 11:02:24;;;;;;;3.40;1.47;;;17.10;99.90;;;;;;5036203;28;20390;-62
2022/10/21 11:05:11;;;;;;;2.67;1.70;;;17.20;99.90;;;;;;5036243;28;20460;-64
2022/10/21 11:07:52;;;;;;;2.90;1.80;;;17.20;99.90;;;;;;5018608;28;20594;-65
2022/10/21 11:10:42;;;;;;;2.57;2.30;;;17.20;99.90;;;;;;5036349;28;20393;-62
2022/10/21 11:13:19;;;;;;;1.87;1.33;;;17.30;99.90;;;;;;5035696;28;20419;-62
2022/10/21 11:16:26;;;;;;;1.60;1.50;;;17.40;99.90;;;;;;5018355;28;20408;-62
2022/10/21 11:19:14;;;;;;;2.40;2.20;;;17.40;99.90;;;;;;5036244;28;20432;-62
2022/10/21 11:21:44;;;;;;;1.83;1.60;;;17.50;99.90;;;;;;5036612;28;20405;-62
2022/10/21 11:24:49;;;;;;;1.50;1.40;;;17.50;99.90;;;;;;5035717;28;20438;-63
2022/10/21 11:27:46;;;;;;;3.13;2.20;;;17.60;99.90;;;;;;5017398;28;20509;-62
2022/10/21 11:30:27;;;;;;;1.60;1.33;;;17.70;99.90;;;;;;5035803;28;20400;-63
2022/10/21 11:33:08;;;;;;;5.73;3.00;;;17.80;99.90;;;;;;5035575;28;20428;-63
2022/10/21 11:35:57;;;;;;;3.47;2.83;;;18.00;99.90;;;;;;5035051;28;20432;-64
2022/10/21 11:38:28;;;;;;;3.90;2.17;;;18.10;99.90;;;;;;5035822;28;20732;-63
2022/10/21 11:41:34;;;;;;;6.90;2.93;;;18.20;99.90;;;;;;5035563;28;20428;-64
2022/10/21 11:44:09;;;;;;;1.73;1.57;;;18.30;99.90;;;;;;5031520;28;20444;-65
2022/10/21 11:47:14;;;;;;;3.70;1.30;;;18.40;99.90;;;;;;5036036;28;20847;-64
2022/10/21 11:49:44;;;;;;;1.70;1.60;;;18.50;99.90;;;;;;5024092;28;20435;-65
2022/10/21 11:52:28;;;;;;;2.87;2.00;;;18.60;99.90;;;;;;5035252;28;20393;-62
2022/10/21 11:55:09;;;;;;;3.10;2.90;;;18.70;99.90;;;;;;5035326;28;20506;-63
2022/10/21 11:57:56;;;;;;;1.90;1.63;;;18.90;99.90;;;;;;5017234;28;20441;-62
2022/10/21 12:00:24;;;;;;;3.90;1.53;;;19.10;99.90;;;;;;5035223;28;20383;-63
2022/10/21 12:03:04;;;;;;;2.93;1.70;;;19.30;99.90;;;;;;5034883;28;20536;-62
2022/10/21 12:05:31;;;;;;;2.70;1.50;;;19.40;99.90;;;;;;5034618;28;20432;-62
2022/10/21 12:08:06;;;;;;;2.50;1.77;;;19.50;99.90;;;;;;5034531;28;20953;-63
2022/10/21 12:10:50;;;;;;;3.50;1.53;;;19.60;99.90;;;;;;5017027;28;20398;-62
2022/10/21 12:13:27;;;;;;;1.30;1.20;;;19.60;99.90;;;;;;5016549;28;20459;-62
2022/10/21 12:15:59;;;;;;;1.90;1.60;;;19.60;99.90;;;;;;5034746;28;20433;-63
2022/10/21 12:18:27;;;;;;;3.60;2.23;;;19.50;99.90;;;;;;5034558;28;20395;-63
2022/10/21 12:20:54;;;;;;;2.40;1.77;;;19.40;99.90;;;;;;5034439;28;20409;-67
2022/10/21 12:23:27;;;;;;;1.40;1.10;;;19.40;99.90;;;;;;5013867;28;20418;-63
2022/10/21 12:26:27;;;;;;;2.00;1.60;;;19.30;99.90;;;;;;5014635;28;20727;-63
2022/10/21 12:29:16;;;;;;;1.80;1.27;;;19.20;99.90;;;;;;5014442;28;20527;-62
2022/10/21 12:31:48;;;;;;;3.03;1.70;;;19.10;99.90;;;;;;5014426;28;20471;-63
2022/10/21 12:34:14;;;;;;;1.37;1.27;;;19.00;99.90;;;;;;5014227;28;20396;-62
2022/10/21 12:36:45;;;;;;;1.13;0.80;;;18.90;99.90;;;;;;5023221;28;20409;-62
2022/10/21 12:39:33;;;;;;;1.60;0.97;;;18.90;99.90;;;;;;5016824;28;20391;-62
2022/10/21 12:42:11;;;;;;;2.23;1.17;;;18.80;99.90;;;;;;5033635;28;20475;-65
2022/10/21 12:44:39;;;;;;;0.90;0.90;;;18.70;99.90;;;;;;5014251;28;20406;-66
2022/10/21 12:47:29;;;;;;;2.47;1.47;;;18.70;99.90;;;;;;5031572;28;20475;-66
2022/10/21 12:50:15;;;;;;;0.70;0.70;;;18.70;99.90;;;;;;5031954;28;20405;-64
2022/10/21 12:52:42;;;;;;;1.23;0.70;;;18.70;99.90;;;;;;5031770;28;20413;-66
2022/10/21 12:55:23;;;;;;;2.07;0.70;;;18.60;99.90;;;;;;5032066;28;20429;-64
2022/10/21 12:58:01;;;;;;;0.97;0.70;;;18.50;99.90;;;;;;5033263;28;20741;-63
2022/10/21 13:00:26;;;;;;;0.80;0.80;;;18.50;99.90;;;;;;5016236;28;20466;-63
2022/10/21 13:03:05;;;;;;;1.10;0.77;;;18.40;99.90;;;;;;5033772;28;20392;-62
2022/10/21 13:05:36;;;;;;;0.80;0.80;;;18.30;99.90;;;;;;4999368;28;20300;-63
2022/10/21 13:08:23;;;;;;;1.47;1.20;;;18.20;99.90;;;;;;5033840;28;20448;-62
2022/10/21 13:11:04;;;;;;;1.23;1.13;;;18.20;99.90;;;;;;5033806;28;20917;-63
2022/10/21 13:13:44;;;;;;;1.20;1.10;;;18.10;99.90;;;;;;5015099;28;20554;-62
2022/10/21 13:16:19;;;;;;;3.90;1.20;;;18.00;99.90;;;;;;5033799;28;20389;-63
2022/10/21 13:18:58;;;;;;;1.10;1.10;;;18.00;99.90;;;;;;5033879;28;20433;-64
2022/10/21 13:21:28;;;;;;;1.23;1.13;;;18.00;99.90;;;;;;5033813;28;20767;-63
2022/10/21 13:24:04;;;;;;;2.33;1.37;;;18.00;99.90;;;;;;5033276;28;20421;-64
2022/10/21 13:26:30;;;;;;;2.80;1.50;;;18.00;99.90;;;;;;5033562;28;20428;-65
2022/10/21 13:29:04;;;;;;;2.30;1.90;;;18.10;99.90;;;;;;5033573;28;20551;-64
2022/10/21 13:31:30;;;;;;;2.20;1.60;;;18.10;99.90;;;;;;5033906;28;20165;-62
2022/10/21 13:33:55;;;;;;;1.97;1.77;;;18.10;99.90;;;;;;5033128;28;20439;-62
2022/10/21 13:36:34;;;;;;;1.10;1.10;;;18.20;99.90;;;;;;5033359;28;20552;-63
2022/10/21 13:39:06;;;;;;;2.87;1.03;;;18.20;99.90;;;;;;5033657;28;20598;-64
2022/10/21 13:41:32;;;;;;;1.10;1.00;;;18.20;99.90;;;;;;5033370;28;20429;-64
2022/10/21 13:44:03;;;;;;;2.77;2.40;;;18.30;99.90;;;;;;5033076;28;20974;-63
2022/10/21 13:46:38;;;;;;;1.47;1.37;;;18.20;99.90;;;;;;5033573;28;20180;-62
2022/10/21 13:49:04;;;;;;;1.53;1.43;;;18.20;99.90;;;;;;5033771;28;20538;-63
2022/10/21 13:51:33;;;;;;;1.80;1.10;;;18.10;99.90;;;;;;5033552;28;20771;-63
2022/10/21 13:54:10;;;;;;;1.77;1.37;;;18.00;99.90;;;;;;5032961;28;20520;-63
2022/10/21 13:56:37;;;;;;;1.57;1.03;;;17.90;99.90;;;;;;5033106;28;20727;-62
2022/10/21 13:59:04;;;;;;;1.30;1.30;;;17.70;99.90;;;;;;5032983;28;20440;-63
2022/10/21 14:01:50;;;;;;;2.60;0.90;;;17.60;99.90;;;;;;5033320;28;20492;-62
2022/10/21 14:04:21;;;;;;;1.50;1.40;;;17.60;99.90;;;;;;5032908;28;20425;-62
2022/10/21 14:07:04;;;;;;;1.20;1.10;;;17.40;99.90;;;;;;5033288;28;20430;-63
2022/10/21 14:09:37;;;;;;;0.63;0.63;;;17.30;99.90;;;;;;5033413;28;20804;-62
2022/10/21 14:12:06;;;;;;;1.40;1.30;;;17.30;99.90;;;;;;5032567;28;20420;-62
2022/10/21 14:14:36;;;;;;;3.00;0.90;;;17.20;99.90;;;;;;5032639;28;20431;-63
2022/10/21 14:17:14;;;;;;;1.73;1.60;;;17.20;99.90;;;;;;5033230;28;20481;-62
2022/10/21 14:19:40;;;;;;;0.97;0.80;;;17.20;99.90;;;;;;5027179;28;20396;-62
2022/10/21 14:22:08;;;;;;;0.73;0.73;;;17.20;99.90;;;;;;5033052;28;20745;-63
2022/10/21 14:24:37;;;;;;;1.00;1.00;;;17.20;99.90;;;;;;5033133;28;20722;-62
2022/10/21 14:27:05;;;;;;;3.63;0.80;;;17.20;99.90;;;;;;5032796;28;20428;-62
2022/10/21 14:29:33;;;;;;;1.83;0.83;;;17.30;99.90;;;;;;5032985;28;20451;-62
2022/10/21 14:32:00;;;;;;;2.73;0.77;;;17.30;99.90;;;;;;4998483;28;20488;-62
2022/10/21 14:34:32;;;;;;;0.77;0.77;;;17.30;99.90;;;;;;5032667;28;20399;-62
2022/10/21 14:37:02;;;;;;;1.43;1.10;;;17.30;99.90;;;;;;5032988;28;20371;-62
2022/10/21 14:39:29;;;;;;;1.40;0.97;;;17.30;99.90;;;;;;5032874;28;20414;-62
2022/10/21 14:41:55;;;;;;;0.90;0.70;;;17.30;99.90;;;;;;5014841;28;20422;-62
2022/10/21 14:44:25;;;;;;;0.97;0.80;;;17.30;99.90;;;;;;5032443;28;20507;-63
2022/10/21 14:46:55;;;;;;;6.17;1.30;;;17.30;99.90;;;;;;5032755;28;20440;-63
2022/10/21 14:49:27;;;;;;;4.03;0.73;;;17.30;99.90;;;;;;5032899;28;20942;-63
2022/10/21 14:52:02;;;;;;;3.37;1.00;;;17.30;99.90;;;;;;5033102;28;20820;-63
2022/10/21 14:54:41;;;;;;;4.40;0.80;;;17.30;99.90;;;;;;5031953;28;20916;-63
2022/10/21 14:57:39;;;;;;;0.97;0.87;;;17.30;99.90;;;;;;5032348;28;20420;-63
2022/10/21 15:00:21;;;;;;;1.07;0.97;;;17.30;99.90;;;;;;5013836;28;20732;-63
2022/10/21 15:02:48;;;;;;;0.70;0.70;;;17.30;99.90;;;;;;5014335;28;20416;-64
2022/10/21 15:05:28;;;;;;;0.60;0.60;;;17.20;99.90;;;;;;5032105;28;20446;-63
2022/10/21 15:08:19;;;;;;;1.57;1.13;;;17.20;99.90;;;;;;5014973;28;20443;-64
2022/10/21 15:10:45;;;;;;;1.37;0.70;;;17.20;99.90;;;;;;5033079;28;20396;-63
2022/10/21 15:13:16;;;;;;;0.97;0.93;;;17.20;99.90;;;;;;5035686;28;20407;-64
2022/10/21 15:15:47;;;;;;;1.37;1.03;;;17.10;99.90;;;;;;5036042;28;20437;-63
2022/10/21 15:18:23;;;;;;;2.63;1.80;;;17.20;99.90;;;;;;5035953;28;20425;-63
2022/10/21 15:20:52;;;;;;;0.90;0.90;;;17.10;99.90;;;;;;5036136;28;20890;-63
2022/10/21 15:23:21;;;;;;;2.27;1.20;;;17.10;99.90;;;;;;5035869;28;20408;-63
2022/10/21 15:25:51;;;;;;;0.73;0.73;;;17.10;99.90;;;;;;5035506;28;20420;-64
2022/10/21 15:28:18;;;;;;;3.23;1.10;;;17.10;99.90;;;;;;5034689;28;20509;-63
2022/10/21 15:30:43;;;;;;;0.80;0.80;;;17.00;99.90;;;;;;5036011;28;20445;-62
2022/10/21 15:33:11;;;;;;;1.50;0.67;;;17.10;99.90;;;;;;5035002;28;20423;-63
2022/10/21 15:35:37;;;;;;;0.90;0.90;;;17.00;99.90;;;;;;5035768;28;20174;-63
2022/10/21 15:38:02;;;;;;;0.80;0.80;;;17.00;99.90;;;;;;5018035;28;20900;-63
2022/10/21 15:40:31;;;;;;;0.80;0.80;;;17.00;99.90;;;;;;5035712;28;20175;-63
2022/10/21 15:42:57;;;;;;;0.63;0.63;;;17.00;99.90;;;;;;5017542;28;20176;-63
2022/10/21 15:45:23;;;;;;;0.60;0.60;;;17.00;99.90;;;;;;5035594;28;20440;-65
2022/10/21 15:47:53;;;;;;;0.97;0.80;;;17.00;99.90;;;;;;5035027;28;20452;-62
2022/10/21 15:50:23;;;;;;;0.50;0.50;;;17.00;99.90;;;;;;5031966;28;20414;-63
2022/10/21 15:52:48;;;;;;;1.33;0.70;;;17.00;99.90;;;;;;5017110;28;20435;-63
2022/10/21 15:55:14;;;;;;;1.03;1.00;;;17.00;99.90;;;;;;5035456;28;20786;-63
2022/10/21 15:57:41;;;;;;;1.07;0.93;;;17.00;99.90;;;;;;5017444;28;20427;-64
2022/10/21 16:00:18;;;;;;;2.10;0.73;;;17.00;99.90;;;;;;5033450;28;20266;-64
2022/10/21 16:02:45;;;;;;;0.60;0.60;;;17.00;99.90;;;;;;5032459;28;20430;-68
2022/10/21 16:05:11;;;;;;;1.63;1.63;;;17.00;99.90;;;;;;5026258;28;20498;-68
2022/10/21 16:07:36;;;;;;;1.57;1.13;;;17.00;99.90;;;;;;5034607;28;20947;-65
2022/10/21 16:10:21;;;;;;;2.47;2.27;;;16.90;99.90;;;;;;5034065;28;20634;-67
2022/10/21 16:12:47;;;;;;;1.77;0.80;;;16.90;99.90;;;;;;5020605;28;20184;-65
2022/10/21 16:15:13;;;;;;;1.80;1.70;;;16.90;99.90;;;;;;5034265;28;20978;-64
2022/10/21 16:17:43;;;;;;;0.77;0.77;;;16.90;99.90;;;;;;5034219;28;20468;-65
2022/10/21 16:20:22;;;;;;;1.10;1.00;;;16.80;99.90;;;;;;5034221;28;20408;-67
2022/10/21 16:22:48;;;;;;;2.07;1.40;;;16.90;99.90;;;;;;5033573;28;20425;-66
2022/10/21 16:25:13;;;;;;;0.80;0.80;;;16.80;99.90;;;;;;5033905;28;20955;-66
2022/10/21 16:27:39;;;;;;;0.90;0.90;;;16.80;99.90;;;;;;5033029;28;20197;-65
2022/10/21 16:30:21;;;;;;;1.63;1.50;;;16.70;99.90;;;;;;5023527;28;20173;-66
2022/10/21 16:32:47;;;;;;;1.37;1.20;;;16.70;99.90;;;;;;5033098;28;20242;-66
2022/10/21 16:35:14;;;;;;;1.80;1.70;;;16.70;99.90;;;;;;5033411;28;20446;-68
2022/10/21 16:37:41;;;;;;;0.80;0.80;;;16.70;99.90;;;;;;5016096;28;20183;-66
2022/10/21 16:40:27;;;;;;;1.33;0.80;;;16.60;99.90;;;;;;5034195;28;20836;-66
2022/10/21 16:42:53;;;;;;;0.93;0.90;;;16.70;99.90;;;;;;5026772;28;20434;-66
2022/10/21 16:45:21;;;;;;;1.17;1.00;;;16.60;99.90;;;;;;5030250;28;20437;-65
2022/10/21 16:47:51;;;;;;;0.93;0.77;;;16.60;99.90;;;;;;5011384;28;20453;-65
2022/10/21 16:50:21;;;;;;;1.60;1.33;;;16.60;99.90;;;;;;5034054;28;20433;-64
2022/10/21 16:52:46;;;;;;;1.00;0.90;;;16.50;99.90;;;;;;5034161;28;20423;-67
2022/10/21 16:55:13;;;;;;;1.07;0.97;;;16.50;99.90;;;;;;5033118;28;20920;-66
2022/10/21 16:57:38;;;;;;;1.27;0.87;;;16.50;99.90;;;;;;5033903;28;20183;-67
2022/10/21 17:00:05;;;;;;;0.97;0.87;;;16.50;99.90;;;;;;5033794;28;20415;-67
2022/10/21 17:02:31;;;;;;;1.03;0.57;;;16.60;99.90;;;;;;5014328;28;20236;-65
2022/10/21 17:04:58;;;;;;;0.90;0.90;;;16.60;99.90;;;;;;5033815;28;20908;-66
2022/10/21 17:07:23;;;;;;;0.70;0.70;;;16.60;99.90;;;;;;5033790;28;20202;-66
2022/10/21 17:09:49;;;;;;;1.80;0.97;;;16.60;99.90;;;;;;5033478;28;20460;-67
2022/10/21 17:12:14;;;;;;;2.20;1.93;;;16.60;99.90;;;;;;5016209;28;20188;-66
2022/10/21 17:14:40;;;;;;;2.80;1.13;;;16.60;99.90;;;;;;5032737;28;20199;-67